sensor_id;sensor_type;location;lat;lon;timestamp;P1;durP1;ratioP1;P2;durP2;ratioP2
85210;SDS011;75591;44.496;0.166;2024-02-21T00:05:23;22.83;;;9.57;;
85210;SDS011;75591;44.496;0.166;2024-02-21T00:20:41;36.73;;;13.90;;
85210;SDS011;75591;44.496;0.166;2024-02-21T00:36:00;33.60;;;10.23;;
85210;SDS011;75591;44.496;0.166;2024-02-21T00:51:19;19.53;;;8.77;;
85210;SDS011;75591;44.496;0.166;2024-02-21T01:06:39;25.30;;;7.80;;
85210;SDS011;75591;44.496;0.166;2024-02-21T01:21:58;18.77;;;8.30;;
85210;SDS011;75591;44.496;0.166;2024-02-21T01:37:17;17.17;;;9.00;;
85210;SDS011;75591;44.496;0.166;2024-02-21T01:52:36;25.60;;;8.20;;
85210;SDS011;75591;44.496;0.166;2024-02-21T02:07:55;15.90;;;7.17;;
85210;SDS011;75591;44.496;0.166;2024-02-21T02:23:17;19.30;;;6.53;;
85210;SDS011;75591;44.496;0.166;2024-02-21T02:38:32;17.07;;;5.80;;
85210;SDS011;75591;44.496;0.166;2024-02-21T02:53:52;10.80;;;5.67;;
85210;SDS011;75591;44.496;0.166;2024-02-21T03:09:16;7.33;;;3.60;;
85210;SDS011;75591;44.496;0.166;2024-02-21T03:24:31;12.17;;;6.90;;
85210;SDS011;75591;44.496;0.166;2024-02-21T03:39:50;21.40;;;7.77;;
85210;SDS011;75591;44.496;0.166;2024-02-21T03:55:09;13.43;;;6.33;;
85210;SDS011;75591;44.496;0.166;2024-02-21T04:10:28;21.70;;;7.03;;
85210;SDS011;75591;44.496;0.166;2024-02-21T04:25:48;12.50;;;6.17;;
85210;SDS011;75591;44.496;0.166;2024-02-21T04:41:06;15.70;;;5.90;;
85210;SDS011;75591;44.496;0.166;2024-02-21T04:56:26;15.33;;;5.83;;
85210;SDS011;75591;44.496;0.166;2024-02-21T05:11:47;20.50;;;9.90;;
85210;SDS011;75591;44.496;0.166;2024-02-21T05:27:07;18.17;;;8.13;;
85210;SDS011;75591;44.496;0.166;2024-02-21T05:42:26;14.07;;;7.07;;
85210;SDS011;75591;44.496;0.166;2024-02-21T05:57:46;15.00;;;7.83;;
85210;SDS011;75591;44.496;0.166;2024-02-21T06:13:06;16.70;;;6.47;;
85210;SDS011;75591;44.496;0.166;2024-02-21T06:28:25;24.67;;;7.53;;
85210;SDS011;75591;44.496;0.166;2024-02-21T06:43:44;12.90;;;6.50;;
85210;SDS011;75591;44.496;0.166;2024-02-21T06:59:04;17.83;;;8.33;;
85210;SDS011;75591;44.496;0.166;2024-02-21T07:14:24;16.03;;;7.60;;
85210;SDS011;75591;44.496;0.166;2024-02-21T07:29:48;19.77;;;6.63;;
85210;SDS011;75591;44.496;0.166;2024-02-21T07:45:04;15.07;;;7.10;;
85210;SDS011;75591;44.496;0.166;2024-02-21T08:00:25;17.57;;;7.60;;
85210;SDS011;75591;44.496;0.166;2024-02-21T08:15:45;13.77;;;7.10;;
85210;SDS011;75591;44.496;0.166;2024-02-21T08:31:03;11.13;;;5.17;;
85210;SDS011;75591;44.496;0.166;2024-02-21T08:46:25;13.03;;;5.43;;
85210;SDS011;75591;44.496;0.166;2024-02-21T09:01:46;15.23;;;5.90;;
85210;SDS011;75591;44.496;0.166;2024-02-21T09:17:06;13.27;;;6.03;;
85210;SDS011;75591;44.496;0.166;2024-02-21T09:32:24;10.97;;;4.97;;
85210;SDS011;75591;44.496;0.166;2024-02-21T09:47:50;13.70;;;3.83;;
85210;SDS011;75591;44.496;0.166;2024-02-21T10:03:09;7.43;;;4.37;;
85210;SDS011;75591;44.496;0.166;2024-02-21T10:18:26;9.33;;;4.30;;
85210;SDS011;75591;44.496;0.166;2024-02-21T10:33:53;9.80;;;3.10;;
85210;SDS011;75591;44.496;0.166;2024-02-21T10:49:10;7.53;;;3.53;;
85210;SDS011;75591;44.496;0.166;2024-02-21T11:04:28;14.40;;;4.30;;
85210;SDS011;75591;44.496;0.166;2024-02-21T11:19:50;16.57;;;3.33;;
85210;SDS011;75591;44.496;0.166;2024-02-21T11:35:18;7.47;;;3.93;;
85210;SDS011;75591;44.496;0.166;2024-02-21T11:50:30;7.40;;;3.23;;
85210;SDS011;75591;44.496;0.166;2024-02-21T12:05:49;6.73;;;2.70;;
85210;SDS011;75591;44.496;0.166;2024-02-21T12:21:09;9.93;;;2.67;;
85210;SDS011;75591;44.496;0.166;2024-02-21T12:36:29;14.73;;;3.10;;
85210;SDS011;75591;44.496;0.166;2024-02-21T12:51:47;4.63;;;2.50;;
85210;SDS011;75591;44.496;0.166;2024-02-21T13:07:08;4.80;;;2.20;;
85210;SDS011;75591;44.496;0.166;2024-02-21T13:22:28;13.00;;;2.33;;
85210;SDS011;75591;44.496;0.166;2024-02-21T13:37:47;10.80;;;2.83;;
85210;SDS011;75591;44.496;0.166;2024-02-21T13:53:05;3.03;;;1.17;;
85210;SDS011;75591;44.496;0.166;2024-02-21T14:08:23;1.13;;;0.80;;
85210;SDS011;75591;44.496;0.166;2024-02-21T14:23:42;1.83;;;0.70;;
85210;SDS011;75591;44.496;0.166;2024-02-21T14:39:00;2.23;;;0.60;;
85210;SDS011;75591;44.496;0.166;2024-02-21T14:54:17;1.80;;;1.10;;
85210;SDS011;75591;44.496;0.166;2024-02-21T15:09:34;1.63;;;1.30;;
85210;SDS011;75591;44.496;0.166;2024-02-21T15:24:54;3.17;;;1.30;;
85210;SDS011;75591;44.496;0.166;2024-02-21T15:40:15;5.20;;;1.53;;
85210;SDS011;75591;44.496;0.166;2024-02-21T15:55:33;5.27;;;1.23;;
85210;SDS011;75591;44.496;0.166;2024-02-21T16:10:51;8.03;;;3.77;;
85210;SDS011;75591;44.496;0.166;2024-02-21T16:26:12;20.87;;;8.80;;
85210;SDS011;75591;44.496;0.166;2024-02-21T16:41:30;15.93;;;4.00;;
85210;SDS011;75591;44.496;0.166;2024-02-21T16:56:51;5.73;;;2.90;;
85210;SDS011;75591;44.496;0.166;2024-02-21T17:12:10;4.37;;;2.80;;
85210;SDS011;75591;44.496;0.166;2024-02-21T17:27:30;9.00;;;2.43;;
85210;SDS011;75591;44.496;0.166;2024-02-21T17:42:48;6.27;;;2.90;;
85210;SDS011;75591;44.496;0.166;2024-02-21T17:58:07;7.30;;;3.67;;
85210;SDS011;75591;44.496;0.166;2024-02-21T18:13:25;6.60;;;3.13;;
85210;SDS011;75591;44.496;0.166;2024-02-21T18:28:45;6.33;;;3.17;;
85210;SDS011;75591;44.496;0.166;2024-02-21T18:44:02;4.93;;;3.07;;
85210;SDS011;75591;44.496;0.166;2024-02-21T18:59:21;18.83;;;9.30;;
85210;SDS011;75591;44.496;0.166;2024-02-21T19:14:41;24.33;;;7.17;;
85210;SDS011;75591;44.496;0.166;2024-02-21T19:30:00;10.93;;;4.00;;
85210;SDS011;75591;44.496;0.166;2024-02-21T19:45:19;8.50;;;4.30;;
85210;SDS011;75591;44.496;0.166;2024-02-21T20:00:38;8.50;;;4.97;;
85210;SDS011;75591;44.496;0.166;2024-02-21T20:15:55;10.40;;;4.20;;
85210;SDS011;75591;44.496;0.166;2024-02-21T20:31:20;19.23;;;5.27;;
85210;SDS011;75591;44.496;0.166;2024-02-21T20:46:34;14.73;;;4.93;;
85210;SDS011;75591;44.496;0.166;2024-02-21T21:01:55;12.70;;;7.00;;
85210;SDS011;75591;44.496;0.166;2024-02-21T21:17:13;14.43;;;6.77;;
85210;SDS011;75591;44.496;0.166;2024-02-21T21:32:31;8.97;;;4.57;;
85210;SDS011;75591;44.496;0.166;2024-02-21T21:47:50;10.27;;;5.17;;
85210;SDS011;75591;44.496;0.166;2024-02-21T22:03:13;7.60;;;4.20;;
85210;SDS011;75591;44.496;0.166;2024-02-21T22:18:28;13.53;;;4.90;;
85210;SDS011;75591;44.496;0.166;2024-02-21T22:33:48;10.57;;;5.57;;
85210;SDS011;75591;44.496;0.166;2024-02-21T22:49:06;10.93;;;5.20;;
85210;SDS011;75591;44.496;0.166;2024-02-21T23:04:24;14.30;;;5.53;;
85210;SDS011;75591;44.496;0.166;2024-02-21T23:19:43;10.27;;;5.07;;
85210;SDS011;75591;44.496;0.166;2024-02-21T23:35:05;11.93;;;4.50;;
85210;SDS011;75591;44.496;0.166;2024-02-21T23:50:23;10.13;;;4.03;;
